Corelli — 9HZQ8 — position and weather

sailwx.info

Track history (hours):
 
Tides and Currents Weather Stations Pressure Air Temp Water Temp Dewpoint Dewpoint Depression Visibility Wind Speed Wind Dir Waves Ship Positions

Corelli

Last reported at 2017-Nov-20 00:30 UTC. Time now 2017-Nov-22 16:49 UTC.
Position N 37°45' W 000°24'.

Length 169 m; draft 8.6 m.

Type: Ship (hazmat cat A). MMSI: 256648000.

Date/timePositionNaut miles runAvg speedWind from/ knotsBaromVisibWave heightAir tempDewpointWater temp
2017-Nov-20 00:30N 37°45' W 000°24'20412.8
2017-Nov-19 08:33N 40°14' E 002°35'114.0
2017-Nov-19 08:30N 40°14' E 002°36'714.3
2017-Nov-19 08:01N 40°19' E 002°43'33714.2
2017-Nov-18 08:16N 43°59' E 008°28'414.6
2017-Nov-18 07:58N 44°02' E 008°32'714.6
2017-Nov-18 07:28N 44°07' E 008°39'814.5
2017-Nov-18 06:55N 44°13' E 008°47'614.4
2017-Nov-18 06:28N 44°17' E 008°54'611.7
2017-Nov-18 05:58N 44°23' E 008°57'3 6.4
2017-Nov-18 05:29N 44°24' E 008°53'0 0.2
2017-Nov-18 04:59N 44°24' E 008°53'0 0.0
2017-Nov-18 04:30N 44°24' E 008°53'0 0.0
2017-Nov-18 04:01N 44°24' E 008°53'0 0.0
2017-Nov-18 03:30N 44°24' E 008°53'0 0.0
2017-Nov-18 03:00N 44°24' E 008°53'0 0.0
2017-Nov-18 02:30N 44°24' E 008°53'0 0.0
2017-Nov-18 01:55N 44°24' E 008°53'0 0.0
2017-Nov-18 01:30N 44°24' E 008°53'0 0.0
2017-Nov-18 00:58N 44°24' E 008°53'0 0.0
2017-Nov-18 00:30N 44°24' E 008°53'0 0.0
2017-Nov-17 23:59N 44°24' E 008°53'0 0.0
2017-Nov-17 23:30N 44°24' E 008°53'0 0.0
2017-Nov-17 22:59N 44°24' E 008°53'0 0.0
2017-Nov-17 22:30N 44°24' E 008°53'0 0.0
2017-Nov-17 22:00N 44°24' E 008°53'0 0.0
2017-Nov-17 21:30N 44°24' E 008°53'0 0.0
2017-Nov-17 20:59N 44°24' E 008°53'0 0.0
2017-Nov-17 20:29N 44°24' E 008°53'0 0.0
2017-Nov-17 20:00N 44°24' E 008°53'0 0.0
2017-Nov-17 19:30N 44°24' E 008°53'0 0.0
2017-Nov-17 18:59N 44°24' E 008°53'0 0.0
2017-Nov-17 18:31N 44°24' E 008°53'0 0.0
2017-Nov-17 17:58N 44°24' E 008°53'0 0.0
2017-Nov-17 17:30N 44°24' E 008°53'0 0.0
2017-Nov-17 17:00N 44°24' E 008°53'0 0.0
2017-Nov-17 16:29N 44°24' E 008°53'0 0.0
2017-Nov-17 15:58N 44°24' E 008°53'0 0.0
2017-Nov-17 15:30N 44°24' E 008°53'0 0.0
2017-Nov-17 14:58N 44°24' E 008°53'0 0.0
2017-Nov-17 14:30N 44°24' E 008°53'0 0.0
2017-Nov-17 13:59N 44°24' E 008°53'0 0.0
2017-Nov-17 13:28N 44°24' E 008°53'0 0.0
2017-Nov-17 12:58N 44°24' E 008°53'0 0.0
2017-Nov-17 12:30N 44°24' E 008°53'0 0.0
2017-Nov-17 12:00N 44°24' E 008°53'0 0.0
2017-Nov-17 11:31N 44°24' E 008°53'0 0.0
2017-Nov-17 10:58N 44°24' E 008°53'0 0.0
2017-Nov-17 10:30N 44°24' E 008°53'0 0.0
2017-Nov-17 09:57N 44°24' E 008°53'0 0.0
2017-Nov-17 09:30N 44°24' E 008°53'0 0.0
2017-Nov-17 09:00N 44°24' E 008°53'0 0.0
2017-Nov-17 08:28N 44°24' E 008°53'0 0.0
2017-Nov-17 07:56N 44°24' E 008°53'0 0.0
2017-Nov-17 07:30N 44°24' E 008°53'0 0.0
2017-Nov-17 07:00N 44°24' E 008°53'0 0.0
2017-Nov-17 06:30N 44°24' E 008°53'0 0.0
2017-Nov-17 05:56N 44°24' E 008°53'0 0.0
2017-Nov-17 05:28N 44°24' E 008°53'0 0.0
2017-Nov-17 05:00N 44°24' E 008°53'1 2.0
2017-Nov-17 04:30N 44°24' E 008°55'3 6.1
2017-Nov-17 04:00N 44°22' E 008°58'2 4.2
2017-Nov-17 03:31N 44°20' E 008°59'4 7.3
2017-Nov-17 03:00N 44°16' E 008°59'3 5.7
2017-Nov-17 02:31N 44°14' E 008°59'0 0.6
2017-Nov-17 02:01N 44°14' E 008°59'0 0.5
2017-Nov-17 01:30N 44°14' E 008°60'1 1.0
2017-Nov-17 01:00N 44°14' E 009°00'2 3.8
2017-Nov-17 00:30N 44°14' E 009°03'510.5
2017-Nov-17 00:00N 44°13' E 009°10'611.3
2017-Nov-16 23:31N 44°10' E 009°17'611.4
2017-Nov-16 23:00N 44°08' E 009°24'611.4
2017-Nov-16 22:31N 44°05' E 009°31'611.1
2017-Nov-16 22:00N 44°02' E 009°38'511.0
2017-Nov-16 21:30N 43°60' E 009°45'4 9.0
2017-Nov-16 21:00N 43°60' E 009°51'5 9.3
2017-Nov-16 20:30N 44°04' E 009°51'2 4.1
2017-Nov-16 19:59N 44°06' E 009°51'0 0.0
2017-Nov-16 19:30N 44°06' E 009°51'0 0.0
2017-Nov-16 18:59N 44°06' E 009°51'0 0.0
2017-Nov-16 18:30N 44°06' E 009°51'0 0.0
2017-Nov-16 18:00N 44°06' E 009°51'0 0.0
2017-Nov-16 17:29N 44°06' E 009°51'0 0.0
2017-Nov-16 17:00N 44°06' E 009°51'0 0.0
2017-Nov-16 16:27N 44°06' E 009°51'0 0.0
2017-Nov-16 15:56N 44°06' E 009°51'0 0.0
2017-Nov-16 15:30N 44°06' E 009°51'0 0.0
2017-Nov-16 14:57N 44°06' E 009°51'0 0.0
2017-Nov-16 14:30N 44°06' E 009°51'0 0.0
2017-Nov-16 13:57N 44°06' E 009°51'0 0.0
2017-Nov-16 13:27N 44°06' E 009°51'0 0.0
2017-Nov-16 12:55N 44°06' E 009°51'0 0.0
2017-Nov-16 12:28N 44°06' E 009°51'0 0.0
2017-Nov-16 12:00N 44°06' E 009°51'0 0.0
2017-Nov-16 11:29N 44°06' E 009°51'0 0.0
2017-Nov-16 10:59N 44°06' E 009°51'0 0.0
2017-Nov-16 10:19N 44°06' E 009°51'0 0.0
2017-Nov-16 09:59N 44°06' E 009°51'0 0.0
2017-Nov-16 09:27N 44°06' E 009°51'0 0.0
2017-Nov-16 08:58N 44°06' E 009°51'0 0.0
2017-Nov-16 08:30N 44°06' E 009°51'0 0.0
2017-Nov-16 07:59N 44°06' E 009°51'0 0.0
2017-Nov-16 07:28N 44°06' E 009°51'0 0.0
2017-Nov-16 06:49N 44°06' E 009°51'0 0.0
2017-Nov-16 06:27N 44°06' E 009°51'0 0.0
2017-Nov-16 05:59N 44°06' E 009°51'0 0.0
2017-Nov-16 05:28N 44°06' E 009°51'0 0.0
2017-Nov-16 04:54N 44°06' E 009°51'0 0.0
2017-Nov-16 04:23N 44°06' E 009°51'0 0.0
2017-Nov-16 04:00N 44°06' E 009°51'0 0.0
2017-Nov-16 03:26N 44°06' E 009°51'0 0.0
2017-Nov-16 02:59N 44°06' E 009°51'0 0.0
2017-Nov-16 02:26N 44°06' E 009°51'0 0.0
2017-Nov-16 01:59N 44°06' E 009°51'0 0.0
2017-Nov-16 01:30N 44°06' E 009°51'0 0.0
2017-Nov-16 00:56N 44°06' E 009°51'0 0.0
2017-Nov-16 00:28N 44°06' E 009°51'0 0.0
2017-Nov-15 23:58N 44°06' E 009°51'0 0.0
2017-Nov-15 23:29N 44°06' E 009°51'0 0.3
2017-Nov-15 22:59N 44°06' E 009°51'3 5.7
2017-Nov-15 22:30N 44°04' E 009°52'5 9.5
2017-Nov-15 22:00N 44°00' E 009°56'510.3
2017-Nov-15 21:30N 43°55' E 009°55'713.6
2017-Nov-15 21:01N 43°49' E 009°50'714.1
2017-Nov-15 20:31N 43°42' E 009°47'714.2
2017-Nov-15 20:01N 43°35' E 009°46'814.2
2017-Nov-15 19:26N 43°27' E 009°44'614.2
2017-Nov-15 19:01N 43°21' E 009°44'714.2
2017-Nov-15 18:31N 43°14' E 009°42'814.3
2017-Nov-15 17:57N 43°07' E 009°40'3114.3
2017-Nov-15 15:49N 42°37' E 009°48'  
2017-Nov-13 02:00N 39°00' E 015°22'611.4
2017-Nov-13 01:30N 38°55' E 015°24'611.3
2017-Nov-13 01:00N 38°50' E 015°27'611.3
2017-Nov-13 00:30N 38°44' E 015°30'611.4
2017-Nov-13 00:00N 38°39' E 015°32'611.6
2017-Nov-12 23:30N 38°34' E 015°35'611.6
2017-Nov-12 23:00N 38°28' E 015°38'611.5
2017-Nov-12 22:30N 38°23' E 015°40'612.0
2017-Nov-12 22:00N 38°17' E 015°42'613.0
2017-Nov-12 21:31N 38°12' E 015°37'611.9
2017-Nov-12 21:00N 38°06' E 015°36'612.4
2017-Nov-12 20:31N 38°00' E 015°36'510.8
2017-Nov-12 20:00N 37°55' E 015°36'611.2
2017-Nov-12 19:30N 37°53' E 015°43'611.2
2017-Nov-12 19:00N 37°50' E 015°49'611.1
2017-Nov-12 18:29N 37°47' E 015°56'611.0
2017-Nov-12 17:57N 37°45' E 016°02'510.8
2017-Nov-12 17:30N 37°43' E 016°08'  
Track history (hours):
 
Tides and Currents Weather Stations Pressure Air Temp Water Temp Dewpoint Dewpoint Depression Visibility Wind Speed Wind Dir Waves Ship Positions

Corelli

Last reported at 2017-Nov-20 00:30 UTC. Time now 2017-Nov-22 16:49 UTC.
Position N 37°45' W 000°24'.

Length 169 m; draft 8.6 m.

Type: Ship (hazmat cat A). MMSI: 256648000.

Date/timePositionNaut miles runAvg speedWind from/ knotsBaromVisibWave heightAir tempDewpointWater temp
2017-Nov-20 00:30N 37°45' W 000°24'20412.8
2017-Nov-19 08:33N 40°14' E 002°35'114.0
2017-Nov-19 08:30N 40°14' E 002°36'714.3
2017-Nov-19 08:01N 40°19' E 002°43'33714.2
2017-Nov-18 08:16N 43°59' E 008°28'414.6
2017-Nov-18 07:58N 44°02' E 008°32'714.6
2017-Nov-18 07:28N 44°07' E 008°39'814.5
2017-Nov-18 06:55N 44°13' E 008°47'614.4
2017-Nov-18 06:28N 44°17' E 008°54'611.7
2017-Nov-18 05:58N 44°23' E 008°57'3 6.4
2017-Nov-18 05:29N 44°24' E 008°53'0 0.2
2017-Nov-18 04:59N 44°24' E 008°53'0 0.0
2017-Nov-18 04:30N 44°24' E 008°53'0 0.0
2017-Nov-18 04:01N 44°24' E 008°53'0 0.0
2017-Nov-18 03:30N 44°24' E 008°53'0 0.0
2017-Nov-18 03:00N 44°24' E 008°53'0 0.0
2017-Nov-18 02:30N 44°24' E 008°53'0 0.0
2017-Nov-18 01:55N 44°24' E 008°53'0 0.0
2017-Nov-18 01:30N 44°24' E 008°53'0 0.0
2017-Nov-18 00:58N 44°24' E 008°53'0 0.0
2017-Nov-18 00:30N 44°24' E 008°53'0 0.0
2017-Nov-17 23:59N 44°24' E 008°53'0 0.0
2017-Nov-17 23:30N 44°24' E 008°53'0 0.0
2017-Nov-17 22:59N 44°24' E 008°53'0 0.0
2017-Nov-17 22:30N 44°24' E 008°53'0 0.0
2017-Nov-17 22:00N 44°24' E 008°53'0 0.0
2017-Nov-17 21:30N 44°24' E 008°53'0 0.0
2017-Nov-17 20:59N 44°24' E 008°53'0 0.0
2017-Nov-17 20:29N 44°24' E 008°53'0 0.0
2017-Nov-17 20:00N 44°24' E 008°53'0 0.0
2017-Nov-17 19:30N 44°24' E 008°53'0 0.0
2017-Nov-17 18:59N 44°24' E 008°53'0 0.0
2017-Nov-17 18:31N 44°24' E 008°53'0 0.0
2017-Nov-17 17:58N 44°24' E 008°53'0 0.0
2017-Nov-17 17:30N 44°24' E 008°53'0 0.0
2017-Nov-17 17:00N 44°24' E 008°53'0 0.0
2017-Nov-17 16:29N 44°24' E 008°53'0 0.0
2017-Nov-17 15:58N 44°24' E 008°53'0 0.0
2017-Nov-17 15:30N 44°24' E 008°53'0 0.0
2017-Nov-17 14:58N 44°24' E 008°53'0 0.0
2017-Nov-17 14:30N 44°24' E 008°53'0 0.0
2017-Nov-17 13:59N 44°24' E 008°53'0 0.0
2017-Nov-17 13:28N 44°24' E 008°53'0 0.0
2017-Nov-17 12:58N 44°24' E 008°53'0 0.0
2017-Nov-17 12:30N 44°24' E 008°53'0 0.0
2017-Nov-17 12:00N 44°24' E 008°53'0 0.0
2017-Nov-17 11:31N 44°24' E 008°53'0 0.0
2017-Nov-17 10:58N 44°24' E 008°53'0 0.0
2017-Nov-17 10:30N 44°24' E 008°53'0 0.0
2017-Nov-17 09:57N 44°24' E 008°53'0 0.0
2017-Nov-17 09:30N 44°24' E 008°53'0 0.0
2017-Nov-17 09:00N 44°24' E 008°53'0 0.0
2017-Nov-17 08:28N 44°24' E 008°53'0 0.0
2017-Nov-17 07:56N 44°24' E 008°53'0 0.0
2017-Nov-17 07:30N 44°24' E 008°53'0 0.0
2017-Nov-17 07:00N 44°24' E 008°53'0 0.0
2017-Nov-17 06:30N 44°24' E 008°53'0 0.0
2017-Nov-17 05:56N 44°24' E 008°53'0 0.0
2017-Nov-17 05:28N 44°24' E 008°53'0 0.0
2017-Nov-17 05:00N 44°24' E 008°53'1 2.0
2017-Nov-17 04:30N 44°24' E 008°55'3 6.1
2017-Nov-17 04:00N 44°22' E 008°58'2 4.2
2017-Nov-17 03:31N 44°20' E 008°59'4 7.3
2017-Nov-17 03:00N 44°16' E 008°59'3 5.7
2017-Nov-17 02:31N 44°14' E 008°59'0 0.6
2017-Nov-17 02:01N 44°14' E 008°59'0 0.5
2017-Nov-17 01:30N 44°14' E 008°60'1 1.0
2017-Nov-17 01:00N 44°14' E 009°00'2 3.8
2017-Nov-17 00:30N 44°14' E 009°03'510.5
2017-Nov-17 00:00N 44°13' E 009°10'611.3
2017-Nov-16 23:31N 44°10' E 009°17'611.4
2017-Nov-16 23:00N 44°08' E 009°24'611.4
2017-Nov-16 22:31N 44°05' E 009°31'611.1
2017-Nov-16 22:00N 44°02' E 009°38'511.0
2017-Nov-16 21:30N 43°60' E 009°45'4 9.0
2017-Nov-16 21:00N 43°60' E 009°51'5 9.3
2017-Nov-16 20:30N 44°04' E 009°51'2 4.1
2017-Nov-16 19:59N 44°06' E 009°51'0 0.0
2017-Nov-16 19:30N 44°06' E 009°51'0 0.0
2017-Nov-16 18:59N 44°06' E 009°51'0 0.0
2017-Nov-16 18:30N 44°06' E 009°51'0 0.0
2017-Nov-16 18:00N 44°06' E 009°51'0 0.0
2017-Nov-16 17:29N 44°06' E 009°51'0 0.0
2017-Nov-16 17:00N 44°06' E 009°51'0 0.0
2017-Nov-16 16:27N 44°06' E 009°51'0 0.0
2017-Nov-16 15:56N 44°06' E 009°51'0 0.0
2017-Nov-16 15:30N 44°06' E 009°51'0 0.0
2017-Nov-16 14:57N 44°06' E 009°51'0 0.0
2017-Nov-16 14:30N 44°06' E 009°51'0 0.0
2017-Nov-16 13:57N 44°06' E 009°51'0 0.0
2017-Nov-16 13:27N 44°06' E 009°51'0 0.0
2017-Nov-16 12:55N 44°06' E 009°51'0 0.0
2017-Nov-16 12:28N 44°06' E 009°51'0 0.0
2017-Nov-16 12:00N 44°06' E 009°51'0 0.0
2017-Nov-16 11:29N 44°06' E 009°51'0 0.0
2017-Nov-16 10:59N 44°06' E 009°51'0 0.0
2017-Nov-16 10:19N 44°06' E 009°51'0 0.0
2017-Nov-16 09:59N 44°06' E 009°51'0 0.0
2017-Nov-16 09:27N 44°06' E 009°51'0 0.0
2017-Nov-16 08:58N 44°06' E 009°51'0 0.0
2017-Nov-16 08:30N 44°06' E 009°51'0 0.0
2017-Nov-16 07:59N 44°06' E 009°51'0 0.0
2017-Nov-16 07:28N 44°06' E 009°51'0 0.0
2017-Nov-16 06:49N 44°06' E 009°51'0 0.0
2017-Nov-16 06:27N 44°06' E 009°51'0 0.0
2017-Nov-16 05:59N 44°06' E 009°51'0 0.0
2017-Nov-16 05:28N 44°06' E 009°51'0 0.0
2017-Nov-16 04:54N 44°06' E 009°51'0 0.0
2017-Nov-16 04:23N 44°06' E 009°51'0 0.0
2017-Nov-16 04:00N 44°06' E 009°51'0 0.0
2017-Nov-16 03:26N 44°06' E 009°51'0 0.0
2017-Nov-16 02:59N 44°06' E 009°51'0 0.0
2017-Nov-16 02:26N 44°06' E 009°51'0 0.0
2017-Nov-16 01:59N 44°06' E 009°51'0 0.0
2017-Nov-16 01:30N 44°06' E 009°51'0 0.0
2017-Nov-16 00:56N 44°06' E 009°51'0 0.0
2017-Nov-16 00:28N 44°06' E 009°51'0 0.0
2017-Nov-15 23:58N 44°06' E 009°51'0 0.0
2017-Nov-15 23:29N 44°06' E 009°51'0 0.3
2017-Nov-15 22:59N 44°06' E 009°51'3 5.7
2017-Nov-15 22:30N 44°04' E 009°52'5 9.5
2017-Nov-15 22:00N 44°00' E 009°56'510.3
2017-Nov-15 21:30N 43°55' E 009°55'713.6
2017-Nov-15 21:01N 43°49' E 009°50'714.1
2017-Nov-15 20:31N 43°42' E 009°47'714.2
2017-Nov-15 20:01N 43°35' E 009°46'814.2
2017-Nov-15 19:26N 43°27' E 009°44'614.2
2017-Nov-15 19:01N 43°21' E 009°44'714.2
2017-Nov-15 18:31N 43°14' E 009°42'814.3
2017-Nov-15 17:57N 43°07' E 009°40'3114.3
2017-Nov-15 15:49N 42°37' E 009°48'  
2017-Nov-13 02:00N 39°00' E 015°22'611.4
2017-Nov-13 01:30N 38°55' E 015°24'611.3
2017-Nov-13 01:00N 38°50' E 015°27'611.3
2017-Nov-13 00:30N 38°44' E 015°30'611.4
2017-Nov-13 00:00N 38°39' E 015°32'611.6
2017-Nov-12 23:30N 38°34' E 015°35'611.6
2017-Nov-12 23:00N 38°28' E 015°38'611.5
2017-Nov-12 22:30N 38°23' E 015°40'612.0
2017-Nov-12 22:00N 38°17' E 015°42'613.0
2017-Nov-12 21:31N 38°12' E 015°37'611.9
2017-Nov-12 21:00N 38°06' E 015°36'612.4
2017-Nov-12 20:31N 38°00' E 015°36'510.8
2017-Nov-12 20:00N 37°55' E 015°36'611.2
2017-Nov-12 19:30N 37°53' E 015°43'611.2
2017-Nov-12 19:00N 37°50' E 015°49'611.1
2017-Nov-12 18:29N 37°47' E 015°56'611.0
2017-Nov-12 17:57N 37°45' E 016°02'510.8
2017-Nov-12 17:30N 37°43' E 016°08'  

Dump ship's entire track history